Time;durP1;ratioP1;P1;durP2;ratioP2;P2;SDS_P1;SDS_P2;PMS_P1;PMS_P2;Temp;Humidity;BMP_temperature;BMP_pressure;BME280_temperature;BME280_humidity;BME280_pressure;Samples;Min_cycle;Max_cycle;Signal;HPM_P1;HPM_P2
2023/12/09 00:00:37;;;;;;;23.63;7.07;;;;;;;5.94;100.00;101059.50;5046142;28;20264;-37
2023/12/09 00:03:03;;;;;;;19.40;7.07;;;;;;;5.94;100.00;101054.97;5046358;28;20325;-37
2023/12/09 00:05:28;;;;;;;26.80;8.77;;;;;;;5.92;100.00;101053.53;5046630;28;20092;-37
2023/12/09 00:07:54;;;;;;;24.83;7.23;;;;;;;5.89;100.00;101045.81;5038272;28;20025;-37
2023/12/09 00:10:19;;;;;;;21.30;7.17;;;;;;;5.92;100.00;101048.16;5033309;28;20021;-37
2023/12/09 00:12:44;;;;;;;22.93;7.23;;;;;;;5.94;100.00;101051.47;5032684;28;20025;-37
2023/12/09 00:15:10;;;;;;;21.37;7.80;;;;;;;5.93;100.00;101058.69;5032488;28;20038;-37
2023/12/09 00:17:35;;;;;;;22.47;7.00;;;;;;;5.86;100.00;101046.22;5032856;28;20034;-37
2023/12/09 00:20:00;;;;;;;19.53;6.17;;;;;;;5.92;100.00;101048.16;5033379;28;20038;-37
2023/12/09 00:22:26;;;;;;;25.63;7.32;;;;;;;5.92;100.00;101054.34;5032835;28;20537;-37
2023/12/09 00:24:51;;;;;;;23.27;7.70;;;;;;;5.89;100.00;101054.69;5032469;28;20026;-37
2023/12/09 00:27:16;;;;;;;26.87;8.67;;;;;;;5.90;100.00;101047.47;5032732;28;20025;-37
2023/12/09 00:29:42;;;;;;;21.40;6.97;;;;;;;5.83;100.00;101044.75;5032905;28;20036;-37
2023/12/09 00:32:07;;;;;;;22.43;7.83;;;;;;;5.84;100.00;101043.72;5032658;28;20310;-37
2023/12/09 00:34:33;;;;;;;16.40;6.63;;;;;;;5.87;100.00;101056.75;5032281;28;20113;-37
2023/12/09 00:36:58;;;;;;;22.33;6.40;;;;;;;5.87;100.00;101053.25;5032131;28;20132;-37
2023/12/09 00:39:23;;;;;;;20.33;6.93;;;;;;;5.82;100.00;101048.47;5032516;28;20034;-37
2023/12/09 00:41:49;;;;;;;17.80;6.70;;;;;;;5.82;100.00;101051.16;5032502;28;20260;-37
2023/12/09 00:44:17;;;;;;;16.93;6.10;;;;;;;5.75;100.00;101042.19;5032473;28;20022;-37
2023/12/09 00:46:42;;;;;;;22.45;6.30;;;;;;;5.82;100.00;101053.84;5032411;28;20477;-37
2023/12/09 00:49:07;;;;;;;18.33;6.70;;;;;;;5.78;100.00;101049.03;5032442;28;20026;-37
2023/12/09 00:51:33;;;;;;;20.67;6.80;;;;;;;5.83;100.00;101066.22;5032906;28;20022;-37
2023/12/09 00:53:58;;;;;;;23.60;7.27;;;;;;;5.83;100.00;101055.47;5032315;28;20018;-37
2023/12/09 00:56:23;;;;;;;22.90;7.37;;;;;;;5.84;100.00;101064.34;5032433;28;20076;-37
2023/12/09 00:58:49;;;;;;;20.30;6.00;;;;;;;5.83;100.00;101055.47;5032206;28;20114;-37
2023/12/09 01:01:14;;;;;;;19.90;6.30;;;;;;;5.80;100.00;101050.50;5031920;28;20022;-37
2023/12/09 01:03:39;;;;;;;21.47;6.93;;;;;;;5.75;100.00;101044.88;5031844;28;20026;-37
2023/12/09 01:06:05;;;;;;;24.73;7.00;;;;;;;5.66;100.00;101040.69;5031922;28;20040;-37
2023/12/09 01:08:30;;;;;;;14.63;5.93;;;;;;;5.71;100.00;101040.94;5032593;28;20029;-37
2023/12/09 01:10:55;;;;;;;19.47;6.60;;;;;;;5.67;100.00;101045.03;5032349;28;20321;-37
2023/12/09 01:13:21;;;;;;;19.23;6.70;;;;;;;5.66;100.00;101049.59;5031737;28;20585;-37
2023/12/09 01:15:46;;;;;;;23.43;7.07;;;;;;;5.64;100.00;101054.28;5032439;28;20029;-37
2023/12/09 01:18:11;;;;;;;21.63;7.10;;;;;;;5.65;100.00;101047.91;5031829;28;20029;-37
2023/12/09 01:20:37;;;;;;;21.13;6.60;;;;;;;5.67;100.00;101043.19;5031452;28;20026;-37
2023/12/09 01:23:02;;;;;;;21.08;7.40;;;;;;;5.65;100.00;101041.69;5031773;28;20029;-37
2023/12/09 01:25:27;;;;;;;21.10;6.97;;;;;;;5.65;100.00;101047.91;5032399;28;20029;-37
2023/12/09 01:27:53;;;;;;;18.73;7.03;;;;;;;5.64;100.00;101048.94;5031764;28;20452;-38
2023/12/09 01:30:18;;;;;;;20.10;7.03;;;;;;;5.57;100.00;101037.31;5032327;28;20022;-37
2023/12/09 01:32:44;;;;;;;18.10;7.43;;;;;;;5.49;100.00;101009.78;5031728;28;20268;-38
2023/12/09 01:35:10;;;;;;;18.00;7.13;;;;;;;5.60;100.00;101034.22;5031624;28;20116;-37
2023/12/09 01:37:35;;;;;;;22.52;8.63;;;;;;;5.57;100.00;101045.38;5032129;28;20461;-37
2023/12/09 01:40:01;;;;;;;23.83;8.10;;;;;;;5.56;100.00;101043.72;5031596;28;20039;-37
2023/12/09 01:42:26;;;;;;;22.92;9.23;;;;;;;5.54;100.00;101044.91;5031929;28;20025;-37
2023/12/09 01:44:51;;;;;;;19.87;7.67;;;;;;;5.52;100.00;101050.50;5031493;28;20026;-37
2023/12/09 01:47:17;;;;;;;17.83;7.18;;;;;;;5.56;100.00;101042.84;5032036;28;20040;-37
2023/12/09 01:49:43;;;;;;;20.50;7.47;;;;;;;5.59;100.00;101031.75;5031484;28;20463;-37
2023/12/09 01:52:08;;;;;;;18.97;7.43;;;;;;;5.59;100.00;101026.38;5031166;28;20396;-37
2023/12/09 01:54:33;;;;;;;14.43;6.50;;;;;;;5.50;100.00;101006.91;5031305;28;20404;-37
2023/12/09 01:56:59;;;;;;;20.37;6.87;;;;;;;5.51;100.00;101010.41;5031282;28;20378;-37
2023/12/09 01:59:25;;;;;;;18.75;7.05;;;;;;;5.46;100.00;101002.13;5031284;28;20033;-37
2023/12/09 02:01:51;;;;;;;26.75;9.38;;;;;;;5.54;100.00;101012.72;5030990;28;20040;-37
2023/12/09 02:04:18;;;;;;;25.13;7.88;;;;;;;5.52;100.00;101006.75;5031190;28;20385;-37
2023/12/09 02:06:43;;;;;;;19.98;8.00;;;;;;;5.45;100.00;101000.47;5030923;28;20466;-37
2023/12/09 02:09:09;;;;;;;16.67;7.40;;;;;;;5.51;100.00;101013.94;5031932;28;20035;-37
2023/12/09 02:11:52;;;;;;;18.05;7.22;;;;;;;5.51;100.00;101008.56;5031142;28;20037;-37
2023/12/09 02:14:24;;;;;;;20.13;6.80;;;;;;;5.40;100.00;100993.00;5031694;28;20026;-37
2023/12/09 02:17:00;;;;;;;22.13;7.25;;;;;;;5.39;100.00;100991.34;5031229;28;20025;-37
2023/12/09 02:19:26;;;;;;;21.38;7.95;;;;;;;5.43;100.00;101009.56;5031130;28;20029;-37
2023/12/09 02:21:55;;;;;;;;;;;;;;;5.48;100.00;101005.47;5031705;28;20036;-37
2023/12/09 02:24:21;;;;;;;21.85;7.05;;;;;;;5.38;100.00;100998.56;5030920;28;19913;-37
2023/12/09 02:26:48;;;;;;;23.77;7.72;;;;;;;5.40;100.00;101004.56;5031180;28;20037;-37
2023/12/09 02:29:15;;;;;;;21.40;8.15;;;;;;;5.38;100.00;100995.91;5031375;28;20049;-36
2023/12/09 02:31:40;;;;;;;19.63;7.55;;;;;;;5.25;100.00;100977.00;5030836;28;20029;-37
2023/12/09 02:34:07;;;;;;;19.40;6.78;;;;;;;5.33;100.00;101001.00;5030834;28;20029;-37
2023/12/09 02:36:34;;;;;;;26.05;8.38;;;;;;;5.33;100.00;101003.69;5031413;28;20105;-37
2023/12/09 02:39:02;;;;;;;20.25;7.63;;;;;;;5.32;100.00;100996.66;5030757;28;20052;-37
2023/12/09 02:41:27;;;;;;;20.48;7.35;;;;;;;5.31;100.00;100995.00;5030727;28;20030;-37
2023/12/09 02:43:53;;;;;;;21.67;8.88;;;;;;;5.31;100.00;100989.63;5030420;28;20017;-37
2023/12/09 02:46:19;;;;;;;20.88;8.05;;;;;;;5.29;100.00;100980.13;5030699;28;20022;-37
2023/12/09 02:48:44;;;;;;;24.92;7.72;;;;;;;5.24;100.00;100969.97;5030617;28;20033;-37
2023/12/09 02:51:09;;;;;;;22.83;8.47;;;;;;;5.16;100.00;100965.56;5030911;28;20049;-37
2023/12/09 02:53:35;;;;;;;18.93;7.40;;;;;;;5.21;100.00;100975.72;5030591;28;20385;-37
2023/12/09 02:56:00;;;;;;;20.20;7.13;;;;;;;5.20;100.00;100975.91;5030646;28;20057;-37
2023/12/09 02:58:25;;;;;;;18.37;6.77;;;;;;;5.15;100.00;100980.00;5030449;28;20124;-37
2023/12/09 03:00:51;;;;;;;17.57;6.87;;;;;;;5.18;100.00;100970.75;5030433;28;20052;-37
2023/12/09 03:03:16;;;;;;;22.80;8.33;;;;;;;5.19;100.00;100974.28;5030707;28;20033;-37
2023/12/09 03:05:42;;;;;;;17.87;6.77;;;;;;;5.16;100.00;100959.38;5030166;28;20612;-37
2023/12/09 03:08:07;;;;;;;23.07;8.93;;;;;;;5.19;100.00;100967.06;5030648;28;20377;-37
2023/12/09 03:10:32;;;;;;;18.80;7.07;;;;;;;5.08;100.00;100943.44;5030935;28;20039;-37
2023/12/09 03:12:58;;;;;;;19.57;7.07;;;;;;;5.15;100.00;100965.78;5030573;28;20029;-37
2023/12/09 03:15:23;;;;;;;21.48;7.88;;;;;;;5.05;100.00;100923.22;5029952;28;20026;-37
2023/12/09 03:17:49;;;;;;;19.90;7.10;;;;;;;5.07;100.00;100947.97;5030004;28;20032;-37
2023/12/09 03:20:14;;;;;;;17.83;6.25;;;;;;;5.08;100.00;100930.06;5030513;28;20488;-37
2023/12/09 03:22:40;;;;;;;18.13;6.35;;;;;;;5.14;100.00;100962.25;5030762;28;20040;-37
2023/12/09 03:25:05;;;;;;;14.50;6.33;;;;;;;5.09;100.00;100935.22;5029978;28;20465;-37
2023/12/09 03:27:31;;;;;;;19.15;6.80;;;;;;;5.15;100.00;100955.88;5030935;28;20041;-37
2023/12/09 03:29:56;;;;;;;21.17;6.90;;;;;;;5.10;100.00;100936.03;5028903;28;20032;-37
2023/12/09 03:32:21;;;;;;;16.70;6.53;;;;;;;5.16;100.00;100962.06;5030159;28;20109;-37
2023/12/09 03:34:47;;;;;;;24.43;7.40;;;;;;;5.11;100.00;100943.03;5030071;28;20431;-37
2023/12/09 03:37:12;;;;;;;21.40;8.03;;;;;;;5.21;100.00;100956.13;5030523;28;20033;-37
2023/12/09 03:39:37;;;;;;;23.77;8.00;;;;;;;5.06;100.00;100924.03;5029989;28;20026;-37
2023/12/09 03:42:03;;;;;;;21.40;6.30;;;;;;;5.16;100.00;100933.41;5029914;28;20026;-37
2023/12/09 03:44:28;;;;;;;20.30;6.72;;;;;;;5.18;100.00;100943.94;5033397;28;20025;-37
2023/12/09 03:46:54;;;;;;;15.10;5.70;;;;;;;5.20;100.00;100943.75;5033733;28;20026;-37
2023/12/09 03:49:19;;;;;;;28.73;6.80;;;;;;;5.19;100.00;100942.91;5033312;28;20022;-37
2023/12/09 03:51:45;;;;;;;22.83;6.63;;;;;;;5.18;100.00;100933.22;5033039;28;20354;-37
2023/12/09 03:54:10;;;;;;;25.27;7.00;;;;;;;5.21;100.00;100932.81;5033560;28;20056;-37
2023/12/09 03:56:35;;;;;;;20.23;6.03;;;;;;;5.22;100.00;100937.19;5034018;28;20049;-37
2023/12/09 03:59:00;;;;;;;17.80;6.57;;;;;;;5.21;100.00;100932.00;5033212;28;20037;-37
2023/12/09 04:01:26;;;;;;;16.47;5.50;;;;;;;5.17;100.00;100923.50;5032855;28;20021;-37
2023/12/09 04:03:52;;;;;;;16.87;5.47;;;;;;;5.13;100.00;100919.56;5033111;28;20051;-37
2023/12/09 04:06:17;;;;;;;21.42;6.47;;;;;;;5.10;100.00;100903.88;5033086;28;20033;-37
2023/12/09 04:08:43;;;;;;;20.48;5.72;;;;;;;5.16;100.00;100900.41;5033037;28;20058;-37
2023/12/09 04:11:08;;;;;;;21.73;6.77;;;;;;;5.17;100.00;100899.38;5033293;28;20034;-37
2023/12/09 04:13:33;;;;;;;24.87;6.00;;;;;;;5.16;100.00;100898.56;5032689;28;20277;-37
2023/12/09 04:16:00;;;;;;;16.20;5.83;;;;;;;5.07;100.00;100897.03;5032949;28;20034;-37
2023/12/09 04:18:25;;;;;;;21.77;6.10;;;;;;;5.14;100.00;100905.16;5032903;28;20022;-37
2023/12/09 04:20:51;;;;;;;18.75;5.72;;;;;;;5.15;100.00;100896.91;5032597;28;20090;-37
2023/12/09 04:23:16;;;;;;;25.70;6.17;;;;;;;5.11;100.00;100889.44;5033387;28;20025;-37
2023/12/09 04:25:42;;;;;;;22.60;6.83;;;;;;;5.18;100.00;100892.19;5033072;28;20052;-37
2023/12/09 04:28:07;;;;;;;16.90;5.77;;;;;;;5.16;100.00;100893.19;5032673;28;20029;-37
2023/12/09 04:30:33;;;;;;;17.63;5.38;;;;;;;5.08;100.00;100884.47;5032668;28;20025;-37
2023/12/09 04:32:58;;;;;;;15.83;5.63;;;;;;;5.12;100.00;100901.81;5032607;28;20048;-37
2023/12/09 04:35:24;;;;;;;14.32;4.85;;;;;;;5.12;100.00;100893.75;5033090;28;20593;-37
2023/12/09 04:37:50;;;;;;;21.60;5.93;;;;;;;5.15;100.00;100890.72;5032673;28;20041;-37
2023/12/09 04:40:15;;;;;;;20.07;5.40;;;;;;;5.14;100.00;100883.69;5032590;28;20029;-37
2023/12/09 04:42:40;;;;;;;17.43;4.97;;;;;;;5.09;100.00;100872.72;5033116;28;20029;-37
2023/12/09 04:45:06;;;;;;;21.60;6.23;;;;;;;5.15;100.00;100885.34;5032473;28;20033;-37
2023/12/09 04:47:32;;;;;;;;;;;;;;;5.17;100.00;100891.34;5032800;28;20025;-37
2023/12/09 04:49:57;;;;;;;19.38;5.70;;;;;;;5.15;100.00;100874.63;5032112;28;19909;-37
2023/12/09 04:52:23;;;;;;;20.73;5.43;;;;;;;5.13;100.00;100863.28;5032733;28;20427;-37
2023/12/09 04:54:49;;;;;;;15.67;4.73;;;;;;;5.10;100.00;100859.13;5032164;28;20026;-37
2023/12/09 04:57:14;;;;;;;19.33;5.72;;;;;;;5.18;100.00;100865.38;5032305;28;20393;-37
2023/12/09 04:59:39;;;;;;;16.98;5.88;;;;;;;5.15;100.00;100851.31;5032264;28;20025;-37
2023/12/09 05:02:05;;;;;;;21.20;5.47;;;;;;;5.20;100.00;100858.78;5031307;28;20031;-37
2023/12/09 05:04:30;;;;;;;18.13;5.53;;;;;;;5.22;100.00;100863.94;5032182;28;20212;-37
2023/12/09 05:06:56;;;;;;;17.40;5.40;;;;;;;5.06;100.00;100833.72;5032198;28;20385;-37
2023/12/09 05:09:24;;;;;;;19.87;5.50;;;;;;;5.06;100.00;100839.09;5032385;28;20026;-37
2023/12/09 05:11:49;;;;;;;17.42;4.95;;;;;;;5.18;100.00;100844.75;5032596;28;20022;-37
2023/12/09 05:14:15;;;;;;;13.77;4.93;;;;;;;5.13;100.00;100833.78;5032308;28;20385;-37
2023/12/09 05:16:40;;;;;;;19.85;5.68;;;;;;;5.13;100.00;100833.78;5032468;28;20310;-37
2023/12/09 05:19:06;;;;;;;21.43;5.30;;;;;;;5.20;100.00;100849.91;5031757;28;20041;-37
2023/12/09 05:21:32;;;;;;;16.98;4.82;;;;;;;5.17;100.00;100853.81;5031968;28;20114;-37
2023/12/09 05:23:57;;;;;;;16.33;5.07;;;;;;;5.18;100.00;100855.47;5031642;28;20022;-37
2023/12/09 05:26:27;;;;;;;17.30;4.70;;;;;;;5.12;100.00;100849.06;5032479;28;20036;-37
2023/12/09 05:28:54;;;;;;;15.48;5.30;;;;;;;5.16;100.00;100844.09;5031459;28;20045;-37
2023/12/09 05:31:20;;;;;;;17.13;5.47;;;;;;;5.10;100.00;100834.19;5031790;28;20030;-37
2023/12/09 05:33:46;;;;;;;;;;;;;;;5.18;100.00;100834.03;5032206;28;20037;-37
2023/12/09 05:36:11;;;;;;;15.60;5.07;;;;;;;5.15;100.00;100837.91;5031420;28;19913;-36
2023/12/09 05:38:37;;;;;;;20.23;5.17;;;;;;;5.10;100.00;100828.81;5031439;28;20493;-37
2023/12/09 05:41:06;;;;;;;17.00;5.25;;;;;;;5.14;100.00;100835.44;5032420;28;20030;-37
2023/12/09 05:43:31;;;;;;;19.05;5.22;;;;;;;5.09;100.00;100821.81;5031861;28;20028;-37
2023/12/09 05:45:57;;;;;;;19.08;5.00;;;;;;;5.18;100.00;100831.34;5031866;28;20037;-36
2023/12/09 05:48:22;;;;;;;19.87;5.90;;;;;;;5.11;100.00;100809.03;5031531;28;20068;-37
2023/12/09 05:50:48;;;;;;;21.13;5.03;;;;;;;5.19;100.00;100824.97;5031481;28;20036;-37
2023/12/09 05:53:13;;;;;;;18.20;4.93;;;;;;;5.19;100.00;100830.31;5031445;28;20026;-37
2023/12/09 05:55:38;;;;;;;14.50;4.43;;;;;;;5.20;100.00;100826.63;5031769;28;20457;-37
2023/12/09 05:58:04;;;;;;;15.20;4.60;;;;;;;5.20;100.00;100833.84;5031610;28;20446;-37
2023/12/09 06:00:30;;;;;;;17.40;4.80;;;;;;;5.17;100.00;100827.00;5031680;28;20022;-37
2023/12/09 06:02:55;;;;;;;15.45;5.10;;;;;;;5.06;100.00;100814.97;5031019;28;20026;-37
2023/12/09 06:05:20;;;;;;;20.57;5.50;;;;;;;5.15;100.00;100831.72;5031489;28;20037;-37
2023/12/09 06:07:46;;;;;;;23.23;5.90;;;;;;;5.15;100.00;100826.38;5031217;28;20381;-37
2023/12/09 06:10:11;;;;;;;18.30;4.70;;;;;;;5.06;100.00;100801.56;5031803;28;20489;-37
2023/12/09 06:12:36;;;;;;;14.13;4.87;;;;;;;5.14;100.00;100811.31;5031223;28;20155;-37
2023/12/09 06:15:02;;;;;;;17.03;4.83;;;;;;;5.08;100.00;100794.16;5031148;28;20116;-37
2023/12/09 06:17:27;;;;;;;14.40;4.55;;;;;;;5.15;100.00;100799.56;5031592;28;20025;-37
2023/12/09 06:19:53;;;;;;;17.33;4.53;;;;;;;5.00;100.00;100769.38;5030792;28;20035;-37
2023/12/09 06:22:18;;;;;;;15.80;5.47;;;;;;;5.16;100.00;100780.59;5031023;28;20053;-37
2023/12/09 06:24:44;;;;;;;14.27;4.15;;;;;;;5.17;100.00;100784.09;5031408;28;20454;-37
2023/12/09 06:27:09;;;;;;;18.67;4.53;;;;;;;5.09;100.00;100779.75;5030643;28;20029;-37
2023/12/09 06:29:35;;;;;;;14.63;4.18;;;;;;;5.14;100.00;100779.97;5031438;28;20036;-37
2023/12/09 06:32:00;;;;;;;16.33;5.07;;;;;;;5.07;100.00;100764.88;5031203;28;20025;-37
2023/12/09 06:34:26;;;;;;;14.13;5.00;;;;;;;5.10;100.00;100772.53;5031133;28;20029;-37
2023/12/09 06:36:51;;;;;;;14.67;4.63;;;;;;;5.13;100.00;100772.97;5031091;28;20112;-37
2023/12/09 06:39:17;;;;;;;15.93;4.63;;;;;;;5.16;100.00;100774.41;5030216;28;20116;-37
2023/12/09 06:41:42;;;;;;;16.83;4.50;;;;;;;5.13;100.00;100777.50;5030501;28;20036;-37
2023/12/09 06:44:08;;;;;;;13.97;4.93;;;;;;;5.11;100.00;100755.41;5030961;28;20070;-37
2023/12/09 06:46:36;;;;;;;14.90;4.07;;;;;;;5.05;100.00;100732.09;5030219;28;20033;-37
2023/12/09 06:49:02;;;;;;;14.50;4.50;;;;;;;5.11;100.00;100750.88;5030241;28;20029;-37
2023/12/09 06:51:27;;;;;;;17.57;4.90;;;;;;;5.07;100.00;100740.75;5030620;28;20041;-37
2023/12/09 06:53:52;;;;;;;16.57;4.40;;;;;;;5.09;100.00;100736.03;5030509;28;20032;-37
2023/12/09 06:56:21;;;;;;;18.07;4.53;;;;;;;5.13;100.00;100729.25;5030692;28;20119;-37
2023/12/09 06:58:47;;;;;;;15.13;4.40;;;;;;;5.13;100.00;100724.72;5031323;28;20098;-37
2023/12/09 07:01:23;;;;;;;16.95;4.20;;;;;;;5.13;100.00;100715.84;5030771;28;20030;-37
2023/12/09 07:03:49;;;;;;;21.65;4.90;;;;;;;5.14;100.00;100696.06;5030402;28;20461;-37
2023/12/09 07:06:21;;;;;;;10.88;3.78;;;;;;;5.10;100.00;100697.47;5031268;28;20068;-36
2023/12/09 07:08:46;;;;;;;15.75;4.18;;;;;;;5.12;100.00;100684.69;5030369;28;20108;-37
2023/12/09 07:11:12;;;;;;;15.80;4.40;;;;;;;5.11;100.00;100681.19;5030666;28;20105;-37
2023/12/09 07:13:38;;;;;;;14.10;3.97;;;;;;;5.10;100.00;100660.78;5030373;28;20528;-37
2023/12/09 07:16:04;;;;;;;;;;;;;;;5.15;100.00;100668.22;5030663;28;20021;-37
2023/12/09 07:18:29;;;;;;;13.63;3.83;;;;;;;5.04;100.00;100645.50;5032528;28;19952;-37
2023/12/09 07:20:55;;;;;;;14.37;4.20;;;;;;;5.11;100.00;100650.88;5033826;28;20433;-37
2023/12/09 07:23:20;;;;;;;13.90;4.10;;;;;;;5.11;100.00;100664.28;5033819;28;20357;-37
2023/12/09 07:25:46;;;;;;;14.03;4.40;;;;;;;5.06;100.00;100656.00;5033782;28;20033;-37
2023/12/09 07:28:11;;;;;;;13.70;4.05;;;;;;;5.11;100.00;100661.59;5033932;28;20029;-36
2023/12/09 07:30:36;;;;;;;11.57;3.90;;;;;;;5.13;100.00;100667.59;5033158;28;20129;-37
2023/12/09 07:33:02;;;;;;;13.52;4.05;;;;;;;5.13;100.00;100654.19;5033553;28;20033;-37
2023/12/09 07:35:28;;;;;;;23.75;5.35;;;;;;;5.19;100.00;100664.13;5034028;28;20056;-37
2023/12/09 07:37:53;;;;;;;11.93;3.60;;;;;;;5.22;100.00;100666.41;5033842;28;20369;-37
2023/12/09 07:40:18;;;;;;;17.30;3.77;;;;;;;5.24;100.00;100661.66;5033860;28;20314;-37
2023/12/09 07:42:44;;;;;;;13.27;4.20;;;;;;;5.24;100.00;100648.25;5033685;28;20434;-37
2023/12/09 07:45:09;;;;;;;13.93;4.13;;;;;;;5.26;100.00;100654.22;5033118;28;20276;-37
2023/12/09 07:47:35;;;;;;;15.43;3.90;;;;;;;5.26;100.00;100650.72;5033907;28;20037;-37
2023/12/09 07:50:00;;;;;;;12.23;4.00;;;;;;;5.28;100.00;100640.66;5033582;28;20332;-37
2023/12/09 07:52:25;;;;;;;14.93;3.93;;;;;;;5.30;100.00;100633.22;5033627;28;20017;-37
2023/12/09 07:54:51;;;;;;;16.77;4.07;;;;;;;5.35;100.00;100626.22;5033247;28;20033;-37
2023/12/09 07:57:17;;;;;;;14.07;3.70;;;;;;;5.36;100.00;100621.69;5033748;28;20041;-37
2023/12/09 07:59:42;;;;;;;;;;;;;;;5.41;100.00;100614.66;5034449;28;20406;-37
2023/12/09 08:02:08;;;;;;;11.10;4.05;;;;;;;5.42;100.00;100610.16;5033508;28;19909;-37
2023/12/09 08:04:33;;;;;;;13.55;3.83;;;;;;;5.45;100.00;100612.41;5033120;28;20146;-37
2023/12/09 08:06:59;;;;;;;10.90;3.90;;;;;;;5.48;100.00;100608.53;5033174;28;20092;-37
2023/12/09 08:09:24;;;;;;;10.53;3.50;;;;;;;5.43;100.00;100593.03;5033321;28;20038;-37
2023/12/09 08:11:49;;;;;;;10.77;3.50;;;;;;;5.48;100.00;100579.84;5033023;28;20040;-37
2023/12/09 08:14:15;;;;;;;20.30;4.90;;;;;;;5.60;100.00;100602.34;5032719;28;20087;-37
2023/12/09 08:16:40;;;;;;;14.27;3.53;;;;;;;5.64;100.00;100600.06;5033419;28;20417;-37
2023/12/09 08:19:05;;;;;;;10.73;3.77;;;;;;;5.68;100.00;100599.47;5032662;28;20068;-37
2023/12/09 08:21:37;;;;;;;12.53;3.80;;;;;;;5.73;100.00;100598.84;5032659;28;20099;-37
2023/12/09 08:24:02;;;;;;;12.43;3.75;;;;;;;5.77;100.00;100608.16;5032858;28;20034;-37
2023/12/09 08:26:29;;;;;;;10.40;4.00;;;;;;;5.79;100.00;100610.63;5033176;28;20036;-37
2023/12/09 08:28:54;;;;;;;13.77;3.65;;;;;;;5.80;100.00;100610.41;5032764;28;20468;-37
2023/12/09 08:31:19;;;;;;;11.17;3.20;;;;;;;5.73;100.00;100598.84;5032574;28;20112;-37
2023/12/09 08:33:45;;;;;;;14.33;3.63;;;;;;;5.81;100.00;100601.34;5033250;28;20026;-37
2023/12/09 08:36:10;;;;;;;11.10;3.60;;;;;;;5.84;100.00;100598.22;5033179;28;20373;-37
2023/12/09 08:38:35;;;;;;;8.53;3.07;;;;;;;5.89;100.00;100582.34;5032681;28;20026;-37
2023/12/09 08:41:01;;;;;;;9.67;3.40;;;;;;;5.92;100.00;100589.19;5032873;28;20104;-37
2023/12/09 08:43:26;;;;;;;9.43;3.40;;;;;;;5.89;100.00;100579.66;5032781;28;20025;-37
2023/12/09 08:45:51;;;;;;;9.83;3.07;;;;;;;5.93;100.00;100572.88;5032762;28;20029;-37
2023/12/09 08:48:17;;;;;;;8.03;2.90;;;;;;;6.04;100.00;100578.66;5032689;28;20030;-37
2023/12/09 08:50:43;;;;;;;7.97;3.40;;;;;;;6.07;100.00;100573.69;5032993;28;20366;-37
2023/12/09 08:53:08;;;;;;;10.25;2.75;;;;;;;6.08;100.00;100569.97;5032662;28;20369;-37
2023/12/09 08:55:34;;;;;;;11.80;3.47;;;;;;;6.11;100.00;100566.88;5031953;28;20033;-37
2023/12/09 08:57:59;;;;;;;13.00;3.37;;;;;;;6.16;100.00;100568.94;5032620;28;20431;-37
2023/12/09 09:00:26;;;;;;;12.17;3.07;;;;;;;6.09;100.00;100557.38;5032061;28;20442;-37
2023/12/09 09:02:55;;;;;;;10.13;2.70;;;;;;;6.12;100.00;100549.72;5032138;28;20101;-37
2023/12/09 09:05:22;;;;;;;10.23;2.72;;;;;;;6.19;100.00;100560.44;5032139;28;20045;-37
2023/12/09 09:07:47;;;;;;;9.18;2.65;;;;;;;6.22;100.00;100549.31;5032134;28;20022;-37
2023/12/09 09:10:13;;;;;;;8.07;2.40;;;;;;;6.25;100.00;100537.34;5031862;28;20029;-37
2023/12/09 09:12:39;;;;;;;11.02;2.97;;;;;;;6.30;100.00;100530.28;5032645;28;20469;-37
2023/12/09 09:15:04;;;;;;;7.97;3.13;;;;;;;6.31;100.00;100515.81;5031787;28;20082;-37
2023/12/09 09:17:30;;;;;;;7.25;2.88;;;;;;;6.29;100.00;100496.41;5032529;28;20022;-37
2023/12/09 09:19:56;;;;;;;9.60;3.33;;;;;;;6.33;100.00;100486.88;5031981;28;20025;-37
2023/12/09 09:22:21;;;;;;;10.23;2.80;;;;;;;6.24;100.00;100457.78;5032194;28;20034;-37
2023/12/09 09:24:47;;;;;;;7.80;2.80;;;;;;;6.39;100.00;100459.19;5031675;28;20414;-37
2023/12/09 09:27:13;;;;;;;12.80;3.00;;;;;;;6.40;100.00;100458.16;5032119;28;20029;-37
2023/12/09 09:29:39;;;;;;;7.78;2.25;;;;;;;6.42;100.00;100453.38;5031793;28;20484;-37
2023/12/09 09:32:05;;;;;;;8.85;2.72;;;;;;;6.39;100.00;100443.09;5032095;28;20081;-37
2023/12/09 09:34:30;;;;;;;10.07;2.92;;;;;;;6.41;100.00;100442.88;5031445;28;20528;-37
2023/12/09 09:36:55;;;;;;;6.73;2.20;;;;;;;6.48;100.00;100458.94;5031262;28;20120;-37
2023/12/09 09:39:21;;;;;;;10.67;2.60;;;;;;;6.44;100.00;100453.16;5031418;28;20057;-37
2023/12/09 09:41:52;;;;;;;12.83;3.70;;;;;;;6.53;100.00;100454.56;5031219;28;20021;-37
2023/12/09 09:44:22;;;;;;;8.60;2.33;;;;;;;6.50;100.00;100446.97;5031948;28;20472;-37
2023/12/09 09:46:52;;;;;;;7.75;2.63;;;;;;;6.57;100.00;100449.59;5031478;28;20046;-37
2023/12/09 09:49:19;;;;;;;7.72;2.40;;;;;;;6.58;100.00;100440.50;5031388;28;20034;-37
2023/12/09 09:51:49;;;;;;;6.20;2.03;;;;;;;6.53;100.00;100421.50;5031562;28;20030;-37
2023/12/09 09:54:24;;;;;;;14.52;2.58;;;;;;;6.63;100.00;100432.63;5031357;28;20029;-37
2023/12/09 09:56:51;;;;;;;10.90;2.72;;;;;;;6.50;100.00;100405.84;5031729;28;20053;-37
2023/12/09 09:59:17;;;;;;;;;;;;;;;6.67;100.00;100420.41;5031747;28;20040;-37
2023/12/09 10:01:44;;;;;;;6.75;2.97;;;;;;;6.68;100.00;100416.69;5031611;28;19932;-37
2023/12/09 10:04:09;;;;;;;8.80;2.63;;;;;;;6.72;100.00;100410.66;5031294;28;20067;-37
2023/12/09 10:06:35;;;;;;;11.85;2.95;;;;;;;6.78;100.00;100386.63;5031583;28;20034;-37
2023/12/09 10:09:01;;;;;;;9.30;2.60;;;;;;;6.82;100.00;100372.56;5030914;28;20039;-37
2023/12/09 10:11:26;;;;;;;9.43;2.63;;;;;;;6.80;100.00;100361.22;5030993;28;20029;-37
2023/12/09 10:13:51;;;;;;;10.13;2.40;;;;;;;6.90;100.00;100358.03;5031220;28;20049;-37
2023/12/09 10:16:17;;;;;;;10.80;2.33;;;;;;;6.76;100.00;100322.38;5031093;28;20026;-37
2023/12/09 10:18:46;;;;;;;7.27;2.17;;;;;;;6.86;100.00;100333.44;5031079;28;20090;-37
2023/12/09 10:21:13;;;;;;;9.25;2.17;;;;;;;6.94;100.00;100327.81;5031001;28;20139;-37
2023/12/09 10:23:39;;;;;;;8.20;2.47;;;;;;;6.94;100.00;100306.31;5030914;28;20041;-37
2023/12/09 10:26:04;;;;;;;9.18;2.40;;;;;;;6.91;100.00;100296.00;5031775;28;20033;-37
2023/12/09 10:28:31;;;;;;;4.90;2.07;;;;;;;7.01;100.00;100305.41;5030616;28;20388;-37
2023/12/09 10:30:56;;;;;;;10.70;2.67;;;;;;;7.03;100.00;100297.94;5031443;28;20032;-37
2023/12/09 10:33:22;;;;;;;6.63;1.63;;;;;;;7.05;100.00;100295.88;5030562;28;20022;-37
2023/12/09 10:35:49;;;;;;;10.43;2.40;;;;;;;7.03;100.00;100271.91;5031348;28;20021;-37
2023/12/09 10:38:17;;;;;;;10.75;2.72;;;;;;;7.07;100.00;100272.28;5030477;28;20358;-37
2023/12/09 10:40:44;;;;;;;6.75;1.90;;;;;;;7.00;100.00;100247.34;5031328;28;20444;-37
2023/12/09 10:43:09;;;;;;;6.75;2.58;;;;;;;7.13;100.00;100266.03;5030765;28;20385;-37
2023/12/09 10:45:34;;;;;;;6.77;1.93;;;;;;;7.12;100.00;100264.34;5030972;28;20037;-37
2023/12/09 10:48:00;;;;;;;8.70;2.10;;;;;;;7.14;100.00;100243.47;5030735;28;20030;-37
2023/12/09 10:50:25;;;;;;;5.87;2.00;;;;;;;7.09;100.00;100228.00;5030503;28;20021;-37
2023/12/09 10:52:51;;;;;;;7.07;2.22;;;;;;;7.12;100.00;100200.66;5030130;28;20442;-37
2023/12/09 10:55:16;;;;;;;6.83;2.13;;;;;;;7.17;100.00;100203.50;5030362;28;20090;-37
2023/12/09 10:57:43;;;;;;;8.00;1.90;;;;;;;7.21;100.00;100185.03;5029884;28;20174;-37
2023/12/09 11:00:10;;;;;;;4.95;1.80;;;;;;;7.19;100.00;100181.78;5029372;28;20025;-37
2023/12/09 11:02:44;;;;;;;4.50;1.95;;;;;;;7.16;100.00;100176.81;5030430;28;20061;-42
2023/12/09 11:05:10;;;;;;;6.63;2.22;;;;;;;7.17;100.00;100178.47;5030216;28;20033;-36
2023/12/09 11:07:37;;;;;;;6.35;2.13;;;;;;;7.15;100.00;100173.31;5030583;28;20038;-37
2023/12/09 11:10:04;;;;;;;5.55;1.75;;;;;;;7.14;100.00;100171.69;5030573;28;20038;-37
2023/12/09 11:12:34;;;;;;;8.40;2.05;;;;;;;7.15;100.00;100151.00;5030686;28;20373;-37